Time;durP1;ratioP1;P1;durP2;ratioP2;P2;SDS_P1;SDS_P2;PMS_P1;PMS_P2;Temp;Humidity;BMP_temperature;BMP_pressure;BME280_temperature;BME280_humidity;BME280_pressure;Samples;Min_cycle;Max_cycle;Signal;HPM_P1;HPM_P2
2022/05/04 00:00:27;;;;;;;7.38;6.60;;;8.10;99.90;;;;;;5016915;28;20396;-81
2022/05/04 00:02:53;;;;;;;6.87;6.17;;;8.00;99.90;;;;;;5032785;28;20450;-82
2022/05/04 00:05:18;;;;;;;6.70;6.07;;;7.90;99.90;;;;;;5035234;28;20381;-80
2022/05/04 00:07:45;;;;;;;6.80;6.10;;;7.80;99.90;;;;;;5018951;28;20407;-80
2022/05/04 00:10:10;;;;;;;6.65;6.00;;;7.70;99.90;;;;;;5049741;28;20372;-83
2022/05/04 00:12:36;;;;;;;6.43;5.82;;;7.70;99.90;;;;;;5058863;28;20443;-81
2022/05/04 00:15:03;;;;;;;7.22;6.55;;;7.60;99.90;;;;;;5058202;28;20874;-81
2022/05/04 00:17:28;;;;;;;9.95;6.97;;;7.60;99.90;;;;;;5058359;28;20371;-81
2022/05/04 00:19:54;;;;;;;8.53;7.10;;;7.60;99.90;;;;;;5060579;28;20380;-80
2022/05/04 00:22:21;;;;;;;8.63;7.82;;;7.60;99.90;;;;;;5046304;28;20377;-81
2022/05/04 00:24:47;;;;;;;9.40;8.38;;;7.60;99.90;;;;;;5040758;28;20783;-83
2022/05/04 00:27:15;;;;;;;8.75;7.88;;;7.50;99.90;;;;;;5040845;28;20397;-84
2022/05/04 00:29:45;;;;;;;8.98;8.18;;;7.40;99.90;;;;;;5022499;28;20383;-81
2022/05/04 00:32:12;;;;;;;9.32;8.20;;;7.30;99.90;;;;;;5039118;28;20457;-82
2022/05/04 00:34:38;;;;;;;8.43;7.63;;;7.10;99.90;;;;;;5039803;28;20447;-81
2022/05/04 00:37:05;;;;;;;9.00;8.10;;;7.10;99.90;;;;;;5022528;28;20480;-82
2022/05/04 00:39:31;;;;;;;9.13;8.23;;;7.00;99.90;;;;;;5038465;28;20376;-81
2022/05/04 00:42:14;;;;;;;9.33;7.97;;;6.90;99.90;;;;;;5042189;28;20371;-83
2022/05/04 00:44:42;;;;;;;9.73;8.82;;;6.90;99.90;;;;;;5058048;28;20399;-82
2022/05/04 00:47:10;;;;;;;9.88;8.98;;;6.80;99.90;;;;;;5042306;28;20379;-79
2022/05/04 00:49:37;;;;;;;10.35;9.20;;;6.70;99.90;;;;;;5059815;28;20376;-80
2022/05/04 00:52:06;;;;;;;9.73;8.73;;;6.70;99.90;;;;;;5057288;28;20382;-81
2022/05/04 00:54:34;;;;;;;9.65;8.75;;;6.60;99.90;;;;;;5047301;28;20410;-81
2022/05/04 00:57:01;;;;;;;9.60;8.55;;;6.60;99.90;;;;;;5047612;28;20467;-82
2022/05/04 00:59:29;;;;;;;10.90;9.57;;;6.50;99.90;;;;;;5051377;28;20782;-82
2022/05/04 01:01:59;;;;;;;10.30;8.73;;;6.50;99.90;;;;;;5057878;28;20444;-81
2022/05/04 01:04:25;;;;;;;9.98;8.98;;;6.50;99.90;;;;;;5056919;28;20406;-84
2022/05/04 01:06:51;;;;;;;9.68;8.68;;;6.40;99.90;;;;;;5058071;28;20369;-84
2022/05/04 01:09:17;;;;;;;10.10;8.52;;;6.40;99.90;;;;;;5039927;28;20881;-81
2022/05/04 01:11:43;;;;;;;9.00;8.18;;;6.30;99.90;;;;;;5044325;28;20392;-81
2022/05/04 01:14:11;;;;;;;9.50;8.60;;;6.30;99.90;;;;;;5038095;28;20396;-82
2022/05/04 01:16:39;;;;;;;9.73;8.73;;;6.30;99.90;;;;;;5020604;28;20473;-83
2022/05/04 01:19:06;;;;;;;9.02;8.13;;;6.20;99.90;;;;;;5038350;28;20771;-82
2022/05/04 01:21:33;;;;;;;9.20;8.30;;;6.20;99.90;;;;;;5020324;28;20373;-82
2022/05/04 01:23:59;;;;;;;9.23;8.32;;;6.20;99.90;;;;;;5039004;28;20744;-82
2022/05/04 01:26:25;;;;;;;9.50;8.60;;;6.20;99.90;;;;;;5020408;28;20381;-81
2022/05/04 01:29:05;;;;;;;9.63;8.45;;;6.20;99.90;;;;;;5038712;28;20855;-83
2022/05/04 01:31:31;;;;;;;9.40;8.50;;;6.20;99.90;;;;;;5020851;28;20459;-81
2022/05/04 01:34:41;;;;;;;10.90;8.87;;;6.10;99.90;;;;;;5034922;28;20399;-80
2022/05/04 01:37:15;;;;;;;13.55;9.50;;;6.00;99.90;;;;;;5040256;28;20383;-82
2022/05/04 01:40:05;;;;;;;15.55;10.13;;;6.00;99.90;;;;;;5039817;28;20380;-83
2022/05/04 01:42:33;;;;;;;10.30;8.93;;;6.00;99.90;;;;;;5039092;28;20892;-82
2022/05/04 01:45:08;;;;;;;12.27;9.48;;;5.90;99.90;;;;;;5039058;28;20384;-81
2022/05/04 01:47:40;;;;;;;11.25;10.15;;;6.10;99.90;;;;;;5057189;28;20364;-81
2022/05/04 01:50:23;;;;;;;;;;;;;;;;;;;;;
2022/05/04 01:53:30;;;;;;;10.90;9.80;;;6.00;99.90;;;;;;5058227;28;20447;-81
2022/05/04 01:56:26;;;;;;;10.82;9.82;;;5.90;99.90;;;;;;5004262;28;20386;-81
2022/05/04 01:59:04;;;;;;;11.52;10.32;;;5.90;99.90;;;;;;5036561;28;20850;-80
2022/05/04 02:01:37;;;;;;;11.30;10.13;;;5.90;99.90;;;;;;5036587;28;20376;-81
2022/05/04 02:04:16;;;;;;;10.90;9.80;;;5.80;99.90;;;;;;5036243;28;20387;-82
2022/05/04 02:06:57;;;;;;;10.65;9.55;;;5.70;99.90;;;;;;5036727;28;20375;-81
2022/05/04 02:09:58;;;;;;;11.60;10.40;;;5.60;99.90;;;;;;5037063;28;20467;-81
2022/05/04 02:13:06;;;;;;;;;;;;;;;;;;;;;
2022/05/04 02:15:57;;;;;;;11.25;10.15;;;5.50;99.90;;;;;;5055252;28;20400;-81
2022/05/04 02:21:54;;;;;;;21.40;10.80;;;5.50;99.90;;;;;;5035523;28;20806;-81
2022/05/04 02:24:28;;;;;;;16.95;10.52;;;5.40;99.90;;;;;;5039135;28;20999;-81
2022/05/04 02:26:53;;;;;;;12.93;10.07;;;5.40;99.90;;;;;;5041100;28;20375;-81
2022/05/04 02:29:24;;;;;;;14.03;10.70;;;5.30;99.90;;;;;;5060262;28;20410;-80
2022/05/04 02:32:01;;;;;;;23.98;12.15;;;5.30;99.90;;;;;;5040847;28;20384;-81
2022/05/04 02:41:24;;;;;;;12.45;10.48;;;5.20;99.90;;;;;;5037094;28;20432;-81
2022/05/04 02:44:08;;;;;;;12.07;10.65;;;5.10;99.90;;;;;;5040363;28;20385;-82
2022/05/04 02:47:10;;;;;;;;;;;;;;;;;;;;;
2022/05/04 02:49:55;;;;;;;11.70;10.50;;;5.00;99.90;;;;;;5039945;28;20481;-82
2022/05/04 02:56:17;;;;;;;13.73;11.18;;;4.90;99.90;;;;;;5035321;28;20475;-83
2022/05/04 03:03:25;;;;;;;11.95;10.75;;;4.90;99.90;;;;;;4955647;29;20400;-82
2022/05/04 03:06:55;;;;;;;;;;;;;;;;;;;;;
2022/05/04 03:13:35;;;;;;;;;;;;;;;;;;;;;
2022/05/04 03:34:05;;;;;;;11.43;10.20;;;4.70;99.90;;;;;;4890793;29;20460;-82
2022/05/04 03:37:14;;;;;;;12.02;10.80;;;4.70;99.90;;;;;;4912984;28;21002;-83
2022/05/04 03:50:55;;;;;;;35.65;14.38;;;5.20;99.90;;;;;;5031485;28;20416;-83
2022/05/04 03:53:29;;;;;;;26.20;11.70;;;5.30;99.90;;;;;;5030268;28;20385;-83
2022/05/04 03:56:41;;;;;;;;;;;;;;;;;;;;;
2022/05/04 04:00:04;;;;;;;16.30;10.80;;;5.40;99.90;;;;;;5034758;28;20361;-81
2022/05/04 04:02:34;;;;;;;17.92;10.98;;;5.40;99.90;;;;;;5015668;28;20411;-77
2022/05/04 04:05:23;;;;;;;19.23;10.63;;;5.50;99.90;;;;;;5028997;28;20381;-80
2022/05/04 04:08:24;;;;;;;15.80;10.85;;;5.50;99.90;;;;;;5034963;28;20378;-81
2022/05/04 04:10:53;;;;;;;16.88;10.63;;;5.50;99.90;;;;;;5023405;28;20411;-81
2022/05/04 04:13:29;;;;;;;19.90;10.43;;;5.60;99.90;;;;;;5059268;28;20937;-82
2022/05/04 04:16:18;;;;;;;;;;;;;;;;;;;;;
2022/05/04 04:18:48;;;;;;;15.03;11.13;;;5.90;99.90;;;;;;5040734;28;20461;-83
2022/05/04 04:24:00;;;;;;;12.73;10.13;;;6.20;99.90;;;;;;5056394;28;20738;-81
2022/05/04 04:26:26;;;;;;;16.97;10.27;;;6.30;99.90;;;;;;5041062;28;20437;-81
2022/05/04 04:29:02;;;;;;;13.90;9.97;;;6.50;99.90;;;;;;5060436;28;20383;-81
2022/05/04 04:31:30;;;;;;;12.93;10.65;;;6.60;99.90;;;;;;5041329;28;20798;-81
2022/05/04 04:34:07;;;;;;;14.30;11.38;;;6.90;99.90;;;;;;5041838;28;20392;-81
2022/05/04 04:36:33;;;;;;;12.93;11.73;;;6.90;99.90;;;;;;5042217;28;20384;-80
2022/05/04 04:38:59;;;;;;;12.88;11.65;;;6.90;99.90;;;;;;5042801;28;20391;-81
2022/05/04 04:44:39;;;;;;;53.65;14.05;;;7.00;99.90;;;;;;5023991;28;20584;-83
2022/05/04 04:47:05;;;;;;;14.10;11.40;;;7.10;99.90;;;;;;5058014;28;20403;-82
2022/05/04 04:49:31;;;;;;;12.52;11.23;;;7.20;99.90;;;;;;5059220;28;20445;-84
2022/05/04 04:51:56;;;;;;;14.40;12.63;;;7.40;99.90;;;;;;5059785;28;20415;-82
2022/05/04 04:54:39;;;;;;;220.90;36.23;;;7.50;99.90;;;;;;5060225;28;20383;-81
2022/05/04 04:57:07;;;;;;;45.20;15.15;;;7.70;99.90;;;;;;5042166;28;20387;-81
2022/05/04 04:59:33;;;;;;;19.33;13.55;;;7.80;99.90;;;;;;5056612;28;20382;-81
2022/05/04 05:02:40;;;;;;;;;;;;;;;;;;;;;
2022/05/04 05:05:07;;;;;;;13.48;12.18;;;8.20;99.90;;;;;;5055088;28;20502;-82
2022/05/04 05:07:33;;;;;;;13.38;12.02;;;8.70;99.90;;;;;;5057268;28;20387;-82
2022/05/04 05:09:59;;;;;;;13.43;12.07;;;8.90;99.90;;;;;;5037460;28;20438;-82
2022/05/04 05:12:24;;;;;;;14.33;12.83;;;9.20;99.90;;;;;;5041255;28;20380;-82
2022/05/04 05:17:35;;;;;;;17.20;11.25;;;9.90;99.90;;;;;;5055511;28;20455;-84
2022/05/04 05:20:02;;;;;;;16.80;11.27;;;10.40;99.90;;;;;;5051921;28;20938;-82
2022/05/04 05:22:28;;;;;;;17.48;10.98;;;10.70;99.90;;;;;;5020645;28;20392;-82
2022/05/04 05:24:54;;;;;;;15.38;10.98;;;11.00;99.90;;;;;;5037973;28;20373;-83
2022/05/04 05:27:22;;;;;;;17.65;11.45;;;11.00;99.90;;;;;;5052016;28;20383;-84
2022/05/04 05:29:48;;;;;;;15.43;11.40;;;11.10;99.90;;;;;;5057980;28;20395;-83
2022/05/04 05:32:15;;;;;;;17.17;11.90;;;11.10;99.90;;;;;;5055902;28;20474;-82
2022/05/04 05:34:41;;;;;;;17.55;11.25;;;11.10;99.90;;;;;;5054340;28;20547;-81
2022/05/04 05:37:06;;;;;;;16.88;11.60;;;11.10;99.90;;;;;;5052884;28;20387;-83
2022/05/04 05:39:33;;;;;;;11.32;10.20;;;11.10;99.90;;;;;;5053656;28;20937;-83
2022/05/04 05:41:59;;;;;;;11.95;10.60;;;11.30;99.90;;;;;;5056474;28;20378;-82
2022/05/04 05:44:25;;;;;;;11.05;9.88;;;11.50;99.90;;;;;;5037328;28;20445;-82
2022/05/04 05:46:50;;;;;;;12.97;11.00;;;11.60;99.90;;;;;;5048818;28;20390;-82
2022/05/04 05:49:16;;;;;;;13.10;10.77;;;11.50;99.90;;;;;;5034236;28;20405;-82
2022/05/04 05:51:42;;;;;;;11.85;10.75;;;11.50;99.90;;;;;;5044876;28;20459;-82
2022/05/04 05:54:08;;;;;;;15.57;12.10;;;11.40;99.90;;;;;;5052124;28;20877;-82
2022/05/04 05:56:34;;;;;;;13.67;11.03;;;11.10;99.90;;;;;;5037546;28;20494;-83
2022/05/04 05:59:00;;;;;;;13.63;11.48;;;10.90;99.90;;;;;;5052512;28;20376;-82
2022/05/04 06:01:26;;;;;;;12.90;10.97;;;10.80;99.90;;;;;;5046743;28;20459;-82
2022/05/04 06:03:52;;;;;;;13.13;11.00;;;10.80;99.90;;;;;;5040329;28;20438;-82
2022/05/04 06:06:18;;;;;;;14.47;11.80;;;10.80;99.90;;;;;;5027948;28;20418;-81
2022/05/04 06:08:44;;;;;;;12.75;10.90;;;10.70;99.90;;;;;;5037619;28;20368;-82
2022/05/04 06:11:10;;;;;;;14.43;11.37;;;10.70;99.90;;;;;;5056097;28;20387;-81
2022/05/04 06:13:35;;;;;;;11.80;10.53;;;10.80;99.90;;;;;;5057368;28;20367;-83
2022/05/04 06:16:01;;;;;;;11.65;10.02;;;11.00;99.90;;;;;;5042386;28;20400;-82
2022/05/04 06:18:27;;;;;;;12.50;9.60;;;11.10;99.90;;;;;;5059563;28;20383;-82
2022/05/04 06:20:52;;;;;;;11.60;10.33;;;11.40;99.90;;;;;;5057266;28;20446;-83
2022/05/04 06:23:18;;;;;;;11.63;10.25;;;11.70;99.90;;;;;;5053685;28;20447;-82
2022/05/04 06:25:45;;;;;;;11.83;10.10;;;11.60;99.90;;;;;;5055175;28;20383;-81
2022/05/04 06:28:11;;;;;;;13.95;10.70;;;11.50;99.90;;;;;;5054084;28;20377;-83
2022/05/04 06:36:06;;;;;;;15.50;9.25;;;12.10;99.90;;;;;;5054383;28;20417;-84
2022/05/04 06:38:31;;;;;;;11.60;10.23;;;12.30;99.90;;;;;;5036812;28;20399;-82
2022/05/04 06:40:57;;;;;;;10.98;8.95;;;12.50;99.90;;;;;;5036941;28;20376;-82
2022/05/04 06:43:23;;;;;;;12.50;9.53;;;12.70;99.90;;;;;;5054630;28;20399;-83
2022/05/04 06:45:49;;;;;;;10.63;9.05;;;12.90;99.90;;;;;;5054677;28;20735;-83
2022/05/04 06:48:14;;;;;;;12.27;8.95;;;13.00;99.90;;;;;;5054081;28;20387;-83
2022/05/04 06:50:40;;;;;;;12.27;8.80;;;13.00;99.90;;;;;;5050448;28;20962;-81
2022/05/04 06:53:06;;;;;;;14.07;9.45;;;13.20;99.90;;;;;;5054561;28;20426;-82
2022/05/04 06:55:31;;;;;;;12.00;8.88;;;13.50;99.90;;;;;;5038978;28;20402;-83
2022/05/04 06:57:57;;;;;;;11.93;9.20;;;13.70;99.90;;;;;;5052168;28;20474;-83
2022/05/04 07:00:23;;;;;;;10.98;8.82;;;13.60;99.90;;;;;;5053149;28;20387;-83
2022/05/04 07:02:48;;;;;;;10.03;7.60;;;13.60;99.90;;;;;;5052331;28;20399;-83
2022/05/04 07:05:14;;;;;;;8.98;7.78;;;13.90;99.90;;;;;;5053054;28;20387;-83
2022/05/04 07:07:41;;;;;;;9.23;7.27;;;14.30;99.90;;;;;;5053718;28;20392;-83
2022/05/04 07:10:07;;;;;;;9.05;7.18;;;14.40;99.90;;;;;;5036134;28;20442;-83
2022/05/04 07:12:33;;;;;;;9.38;7.13;;;14.60;99.90;;;;;;5054623;28;20384;-82
2022/05/04 07:14:58;;;;;;;10.55;6.75;;;14.80;99.90;;;;;;5024258;28;20416;-82
2022/05/04 07:17:25;;;;;;;8.37;6.03;;;14.70;99.90;;;;;;5038780;28;21245;-82
2022/05/04 07:19:51;;;;;;;9.57;6.17;;;14.90;99.90;;;;;;5028330;28;20376;-82
2022/05/04 07:22:16;;;;;;;10.10;6.67;;;15.00;99.90;;;;;;5020389;28;20737;-83
2022/05/04 07:24:42;;;;;;;7.82;6.07;;;15.20;99.90;;;;;;5046826;28;20505;-82
2022/05/04 07:27:08;;;;;;;7.10;5.30;;;15.00;99.90;;;;;;5053541;28;20422;-83
2022/05/04 07:29:34;;;;;;;8.13;4.90;;;15.40;99.90;;;;;;5056669;28;20387;-81
2022/05/04 07:32:00;;;;;;;7.60;5.43;;;;;;;;;;5055678;28;20379;-83
2022/05/04 07:34:32;;;;;;;9.95;5.32;;;15.80;99.90;;;;;;5037638;28;20506;-83
2022/05/04 07:36:57;;;;;;;9.10;5.63;;;15.90;99.90;;;;;;5056648;28;20430;-80
2022/05/04 07:42:24;;;;;;;8.75;5.28;;;15.60;99.90;;;;;;5055395;28;20644;-83
2022/05/04 07:45:02;;;;;;;9.07;5.30;;;16.10;99.90;;;;;;5034307;28;20411;-83
2022/05/04 07:47:30;;;;;;;10.15;5.65;;;15.80;99.90;;;;;;5036046;28;20474;-83
2022/05/04 07:49:56;;;;;;;10.25;5.43;;;15.70;99.90;;;;;;5056698;28;20394;-82
2022/05/04 07:52:23;;;;;;;9.02;5.47;;;;;;;;;;5057746;28;20379;-82
2022/05/04 07:54:51;;;;;;;7.20;4.90;;;;;;;;;;5056816;28;20758;-83
2022/05/04 07:57:17;;;;;;;10.20;5.28;;;16.60;99.90;;;;;;5055911;28;20871;-81
2022/05/04 08:04:16;;;;;;;9.37;4.90;;;16.60;99.90;;;;;;5052576;28;20395;-83
2022/05/04 08:05:12;;;;;;;8.57;5.03;;;16.90;99.90;;;;;;5046422;28;20435;-82
2022/05/04 08:07:38;;;;;;;8.67;4.53;;;16.90;99.90;;;;;;5046147;28;20384;-84
2022/05/04 08:10:04;;;;;;;9.90;4.10;;;17.20;99.90;;;;;;5046095;28;20420;-81
2022/05/04 08:12:32;;;;;;;7.13;4.20;;;16.80;99.40;;;;;;5046554;28;20489;-82
2022/05/04 08:14:57;;;;;;;7.82;4.15;;;17.30;99.90;;;;;;5046515;28;20910;-83
2022/05/04 08:17:23;;;;;;;7.95;4.18;;;17.00;99.90;;;;;;5048371;28;20368;-83
2022/05/04 08:19:49;;;;;;;9.13;4.03;;;;;;;;;;5027794;28;20430;-84
2022/05/04 08:22:14;;;;;;;8.30;4.20;;;17.20;99.40;;;;;;5025383;28;20377;-84
2022/05/04 08:24:40;;;;;;;7.97;4.30;;;17.40;99.60;;;;;;5044531;28;20407;-83
2022/05/04 08:27:06;;;;;;;8.35;4.03;;;17.40;99.90;;;;;;5044733;28;20387;-82
2022/05/04 08:29:32;;;;;;;11.90;4.07;;;17.60;99.20;;;;;;5026843;28;20402;-83
2022/05/04 08:31:59;;;;;;;7.20;3.30;;;18.00;99.90;;;;;;5048674;28;20406;-83
2022/05/04 08:34:25;;;;;;;6.97;3.90;;;18.50;99.90;;;;;;5040736;28;20488;-83
2022/05/04 08:36:52;;;;;;;8.00;3.83;;;18.60;97.30;;;;;;5046919;28;20849;-83
2022/05/04 08:39:17;;;;;;;11.00;4.00;;;18.70;97.90;;;;;;5021768;28;20761;-82
2022/05/04 08:41:43;;;;;;;8.87;3.50;;;18.70;99.90;;;;;;5045465;28;20869;-82
2022/05/04 08:44:11;;;;;;;8.38;3.78;;;18.30;97.20;;;;;;5027644;28;20725;-83
2022/05/04 08:46:40;;;;;;;8.05;3.88;;;;;;;;;;5043378;28;20390;-83
2022/05/04 08:49:07;;;;;;;6.53;3.53;;;18.50;94.80;;;;;;5044317;28;20416;-81
2022/05/04 08:51:35;;;;;;;9.23;4.03;;;18.20;96.30;;;;;;5038304;28;20395;-84
2022/05/04 08:54:00;;;;;;;8.32;3.60;;;18.10;95.70;;;;;;5046941;28;20395;-84
2022/05/04 08:56:26;;;;;;;5.73;3.50;;;18.00;97.50;;;;;;5026757;28;20794;-82
2022/05/04 08:58:52;;;;;;;8.40;4.15;;;18.20;97.90;;;;;;5018599;28;20390;-84
2022/05/04 09:01:18;;;;;;;7.53;3.60;;;18.70;96.70;;;;;;5040619;28;20374;-84
2022/05/04 09:03:43;;;;;;;7.43;3.75;;;19.00;96.70;;;;;;5044778;28;20407;-84
2022/05/04 09:06:09;;;;;;;7.47;3.37;;;19.40;96.10;;;;;;5027417;28;20530;-83
2022/05/04 09:08:54;;;;;;;5.10;3.38;;;19.70;94.50;;;;;;5053751;28;20375;-83
2022/05/04 09:11:22;;;;;;;10.32;3.50;;;20.00;93.60;;;;;;5051389;28;20386;-83
2022/05/04 09:13:48;;;;;;;8.97;3.53;;;20.10;93.80;;;;;;5024756;28;21000;-83
2022/05/04 09:16:29;;;;;;;7.40;3.63;;;20.30;93.80;;;;;;5033992;28;20401;-82
2022/05/04 09:18:54;;;;;;;7.18;4.03;;;20.30;92.60;;;;;;5034516;28;20611;-82
2022/05/04 09:21:21;;;;;;;9.03;3.40;;;20.20;93.70;;;;;;5035216;28;20472;-85
2022/05/04 09:23:52;;;;;;;5.72;3.40;;;20.40;94.60;;;;;;5036557;28;20381;-83
2022/05/04 09:26:19;;;;;;;6.20;3.35;;;20.70;94.00;;;;;;5016934;28;20393;-83
2022/05/04 09:28:48;;;;;;;8.23;3.42;;;21.00;92.60;;;;;;5036433;28;20408;-84
2022/05/04 09:31:14;;;;;;;7.93;3.43;;;21.10;91.80;;;;;;5036234;28;20377;-84
2022/05/04 09:33:40;;;;;;;6.60;3.15;;;20.90;92.70;;;;;;5037011;28;20796;-83
2022/05/04 09:36:06;;;;;;;7.43;3.70;;;21.10;92.80;;;;;;5036475;28;20402;-83
2022/05/04 09:46:53;;;;;;;6.15;3.58;;;21.30;90.50;;;;;;5035101;28;20449;-84
2022/05/04 09:49:23;;;;;;;5.45;3.10;;;20.90;90.40;;;;;;5016583;28;20385;-83
2022/05/04 09:51:50;;;;;;;6.27;3.27;;;21.00;90.60;;;;;;5034057;28;20401;-83
2022/05/04 09:54:22;;;;;;;8.75;3.53;;;20.80;91.10;;;;;;5038434;28;20409;-83
2022/05/04 09:56:53;;;;;;;5.90;3.20;;;21.00;92.70;;;;;;5037920;28;20369;-80
2022/05/04 09:59:25;;;;;;;6.03;3.72;;;21.20;91.10;;;;;;5015058;28;20767;-81
2022/05/04 10:01:51;;;;;;;6.70;3.58;;;21.30;92.40;;;;;;5015105;28;20388;-84
2022/05/04 10:04:21;;;;;;;6.10;3.10;;;21.40;90.90;;;;;;5034802;28;20365;-86
2022/05/04 10:06:51;;;;;;;6.07;3.30;;;21.40;92.00;;;;;;5020232;28;20386;-85
2022/05/04 10:09:17;;;;;;;5.45;3.38;;;21.70;91.00;;;;;;5037665;28;20457;-84
2022/05/04 10:11:43;;;;;;;4.93;3.10;;;22.20;87.90;;;;;;5037690;28;20392;-84
2022/05/04 10:14:12;;;;;;;10.13;3.47;;;22.30;89.70;;;;;;5017673;28;20384;-83
2022/05/04 10:16:48;;;;;;;5.38;3.33;;;22.50;90.00;;;;;;5019862;28;20507;-84
2022/05/04 10:19:57;;;;;;;7.23;3.70;;;22.40;90.20;;;;;;5019620;28;20374;-84
2022/05/04 10:22:29;;;;;;;7.13;3.90;;;22.40;86.40;;;;;;5020734;28;20377;-83
2022/05/04 10:25:00;;;;;;;5.85;3.50;;;22.30;86.40;;;;;;5036705;28;20373;-83
2022/05/04 10:27:28;;;;;;;7.17;3.43;;;22.10;88.10;;;;;;5036800;28;20395;-82
2022/05/04 10:30:45;;;;;;;6.22;3.22;;;22.00;90.00;;;;;;5034905;28;20463;-83
2022/05/04 10:32:56;;;;;;;6.07;3.47;;;22.20;88.70;;;;;;5025379;28;20370;-82
2022/05/04 10:35:31;;;;;;;5.80;3.60;;;22.40;89.80;;;;;;5019003;28;20397;-84
2022/05/04 10:37:59;;;;;;;5.03;3.35;;;22.50;89.40;;;;;;5016158;28;20743;-85
2022/05/04 10:40:31;;;;;;;9.75;3.30;;;22.80;87.40;;;;;;5016957;28;20478;-84
2022/05/04 10:43:01;;;;;;;7.67;3.60;;;22.60;87.70;;;;;;5038054;28;20373;-86
2022/05/04 10:45:33;;;;;;;95.57;11.50;;;22.40;90.10;;;;;;5019407;28;20385;-86
2022/05/04 10:48:20;;;;;;;6.60;3.33;;;22.50;89.60;;;;;;5038471;28;20480;-83
2022/05/04 10:51:08;;;;;;;4.55;3.05;;;22.60;87.40;;;;;;5020256;28;20405;-81
2022/05/04 10:53:35;;;;;;;8.38;3.53;;;22.60;86.60;;;;;;5038134;28;20369;-82
2022/05/04 10:56:03;;;;;;;7.60;3.88;;;22.70;86.90;;;;;;5035757;28;20759;-82
2022/05/04 10:58:38;;;;;;;5.45;3.53;;;22.70;88.50;;;;;;5017570;28;20373;-86
2022/05/04 11:01:11;;;;;;;17.60;4.35;;;23.00;85.60;;;;;;5037157;28;20452;-84
2022/05/04 11:03:49;;;;;;;5.43;3.17;;;23.30;83.80;;;;;;5037232;28;20365;-82
2022/05/04 11:06:25;;;;;;;7.15;3.70;;;23.20;83.30;;;;;;5036398;28;20472;-82
2022/05/04 11:08:52;;;;;;;4.30;2.92;;;23.40;84.00;;;;;;5018194;28;20410;-82
2022/05/04 11:11:20;;;;;;;6.55;3.20;;;23.10;82.50;;;;;;5034449;28;20400;-84
2022/05/04 11:13:46;;;;;;;5.90;3.25;;;22.80;83.20;;;;;;5027217;28;20409;-85
2022/05/04 11:16:12;;;;;;;3.78;3.20;;;22.50;83.10;;;;;;5047036;28;20729;-83
2022/05/04 11:18:38;;;;;;;7.43;3.58;;;22.40;84.30;;;;;;5028244;28;20451;-81
2022/05/04 11:21:13;;;;;;;25.77;5.30;;;22.60;83.80;;;;;;5038632;28;20409;-84
2022/05/04 11:23:40;;;;;;;5.32;2.75;;;22.50;86.50;;;;;;5043648;28;20374;-83
2022/05/04 11:26:06;;;;;;;5.35;3.42;;;22.80;83.00;;;;;;5041733;28;20383;-85
2022/05/04 11:28:34;;;;;;;5.95;3.40;;;22.90;82.90;;;;;;5043802;28;20436;-82
2022/05/04 11:30:59;;;;;;;7.10;3.28;;;23.30;84.00;;;;;;5024221;28;20381;-81
2022/05/04 11:33:25;;;;;;;5.40;3.10;;;23.40;82.00;;;;;;5044240;28;20379;-82
2022/05/04 11:35:53;;;;;;;7.93;3.28;;;23.30;83.10;;;;;;5026515;28;20399;-85
2022/05/04 11:38:21;;;;;;;5.00;3.20;;;23.30;80.90;;;;;;5020453;28;20483;-84
2022/05/04 11:40:47;;;;;;;4.17;2.60;;;23.20;81.90;;;;;;5023985;28;20840;-81
2022/05/04 11:43:27;;;;;;;9.10;3.05;;;23.10;82.20;;;;;;5028361;28;20438;-83
2022/05/04 11:45:54;;;;;;;7.00;2.55;;;23.00;81.30;;;;;;5026542;28;20378;-82
2022/05/04 11:48:21;;;;;;;4.70;3.00;;;23.00;82.40;;;;;;5044147;28;20456;-82
2022/05/04 11:50:47;;;;;;;4.45;2.88;;;23.10;83.40;;;;;;5023932;28;20404;-84
2022/05/04 11:53:13;;;;;;;4.50;2.97;;;23.10;84.20;;;;;;5026575;28;20417;-82
2022/05/04 11:55:38;;;;;;;7.10;3.35;;;23.10;81.90;;;;;;5022528;28;20409;-83
2022/05/04 11:58:14;;;;;;;5.87;2.73;;;23.10;82.20;;;;;;5042331;28;20441;-85
2022/05/04 12:00:40;;;;;;;8.40;3.17;;;23.00;81.40;;;;;;5029924;28;20448;-85
2022/05/04 12:03:07;;;;;;;5.90;3.00;;;22.90;82.30;;;;;;5045126;28;20435;-85
2022/05/04 12:05:34;;;;;;;6.63;3.63;;;22.80;82.20;;;;;;5039597;28;20424;-85
2022/05/04 12:08:02;;;;;;;3.30;2.75;;;22.70;84.10;;;;;;5041455;28;20422;-82
2022/05/04 12:10:30;;;;;;;7.05;3.42;;;22.50;82.10;;;;;;5041917;28;20523;-85
2022/05/04 12:12:58;;;;;;;11.45;3.85;;;22.50;84.90;;;;;;5043108;28;20374;-81
2022/05/04 12:15:32;;;;;;;5.15;2.90;;;22.40;83.00;;;;;;5030270;28;20401;-84
2022/05/04 12:18:02;;;;;;;5.97;3.58;;;22.30;84.50;;;;;;5045994;28;20379;-82
2022/05/04 12:20:28;;;;;;;4.60;2.80;;;22.20;84.70;;;;;;5038448;28;20775;-83
2022/05/04 12:22:55;;;;;;;6.53;2.92;;;22.30;86.50;;;;;;5036493;28;20369;-83
2022/05/04 12:25:23;;;;;;;4.90;2.80;;;22.30;81.70;;;;;;5046127;28;20387;-82
2022/05/04 12:27:51;;;;;;;5.97;3.08;;;22.40;84.30;;;;;;5029337;28;20385;-82
2022/05/04 12:33:09;;;;;;;3.67;2.80;;;22.60;80.70;;;;;;5046190;28;20459;-83
2022/05/04 12:35:46;;;;;;;5.75;3.20;;;22.50;79.80;;;;;;5045671;28;20895;-83
2022/05/04 12:38:16;;;;;;;6.40;3.38;;;22.50;81.30;;;;;;5045998;28;20835;-83
2022/05/04 12:40:42;;;;;;;6.67;3.83;;;22.30;81.80;;;;;;5045985;28;20376;-83
2022/05/04 12:43:08;;;;;;;8.37;3.33;;;22.10;90.90;;;;;;5044524;28;20366;-82
2022/05/04 12:45:38;;;;;;;6.13;3.30;;;21.70;84.50;;;;;;5042813;28;20457;-85
2022/05/04 12:48:09;;;;;;;4.75;3.53;;;21.60;86.30;;;;;;5026675;28;21162;-83
2022/05/04 12:50:36;;;;;;;5.05;3.53;;;21.80;82.80;;;;;;5044768;28;20384;-84
2022/05/04 12:53:03;;;;;;;4.75;3.30;;;21.70;84.70;;;;;;5045354;28;20424;-83
2022/05/04 12:58:16;;;;;;;10.38;3.83;;;22.00;82.80;;;;;;5044185;28;20792;-84
2022/05/04 13:00:42;;;;;;;6.45;3.35;;;22.20;84.40;;;;;;5045120;28;20504;-86
2022/05/04 13:03:14;;;;;;;7.88;3.80;;;22.30;83.80;;;;;;5026751;28;20372;-83
2022/05/04 13:05:40;;;;;;;6.38;3.70;;;22.40;83.10;;;;;;5042407;28;20401;-84
2022/05/04 13:08:06;;;;;;;6.50;3.37;;;22.40;82.90;;;;;;5027189;28;20457;-84
2022/05/04 13:10:33;;;;;;;3.72;3.00;;;22.70;82.80;;;;;;5044457;28;20426;-85
2022/05/04 13:12:59;;;;;;;4.88;3.20;;;22.80;82.40;;;;;;5044358;28;20413;-85
2022/05/04 13:15:25;;;;;;;5.43;3.13;;;22.90;82.80;;;;;;5046965;28;20394;-83
2022/05/04 13:17:51;;;;;;;17.33;4.07;;;22.90;82.90;;;;;;5045301;28;20369;-82
2022/05/04 13:20:18;;;;;;;5.33;3.60;;;23.10;80.80;;;;;;5047823;28;20368;-84
2022/05/04 13:22:45;;;;;;;4.93;3.70;;;23.00;79.40;;;;;;5043294;28;20811;-86
2022/05/04 13:25:11;;;;;;;6.55;3.60;;;22.80;79.30;;;;;;5044055;28;20463;-86
2022/05/04 13:27:38;;;;;;;16.25;4.22;;;22.70;79.50;;;;;;5042073;28;20396;-85
2022/05/04 13:30:07;;;;;;;7.78;3.70;;;22.70;82.10;;;;;;5042444;28;20372;-85
2022/05/04 13:32:33;;;;;;;5.97;3.42;;;22.80;81.20;;;;;;5046736;28;20381;-84
2022/05/04 13:34:58;;;;;;;8.35;4.28;;;22.90;81.40;;;;;;5037226;28;20902;-83
2022/05/04 13:37:24;;;;;;;7.30;3.53;;;22.90;82.50;;;;;;5033609;28;20922;-84
2022/05/04 13:39:50;;;;;;;5.70;3.28;;;22.80;80.60;;;;;;5044522;28;20935;-84
2022/05/04 13:42:15;;;;;;;4.87;3.30;;;22.80;81.00;;;;;;5043689;28;20408;-84
2022/05/04 13:44:41;;;;;;;7.95;3.03;;;22.40;89.70;;;;;;5028967;28;20383;-86
2022/05/04 13:47:09;;;;;;;7.17;3.00;;;22.30;83.80;;;;;;5036455;28;20468;-83
2022/05/04 13:49:35;;;;;;;12.32;3.70;;;22.30;83.30;;;;;;5042685;28;20381;-84
2022/05/04 13:54:45;;;;;;;6.07;3.60;;;22.60;89.10;;;;;;5041620;28;20462;-83
2022/05/04 13:57:10;;;;;;;5.40;3.58;;;22.50;82.50;;;;;;5021630;28;20872;-85
2022/05/04 13:59:36;;;;;;;22.53;5.73;;;22.40;81.50;;;;;;5042832;28;20363;-83
2022/05/04 14:02:03;;;;;;;7.55;3.55;;;22.40;82.30;;;;;;5044751;28;20395;-85
2022/05/04 14:04:29;;;;;;;5.75;3.70;;;22.30;81.20;;;;;;5040628;28;20713;-84
2022/05/04 14:06:55;;;;;;;7.50;3.30;;;22.50;81.00;;;;;;5031846;28;20394;-84
2022/05/04 14:09:21;;;;;;;7.03;3.37;;;22.60;83.70;;;;;;5051036;28;20376;-82
2022/05/04 14:11:47;;;;;;;7.20;3.40;;;22.80;81.10;;;;;;5046105;28;20381;-86
2022/05/04 14:16:57;;;;;;;8.32;3.90;;;22.80;83.70;;;;;;5030050;28;20376;-85
2022/05/04 14:19:23;;;;;;;6.47;3.80;;;22.90;82.10;;;;;;5033129;28;20377;-85
2022/05/04 14:21:49;;;;;;;5.20;3.87;;;23.00;83.10;;;;;;5026116;28;20376;-83
2022/05/04 14:24:16;;;;;;;13.52;4.13;;;23.20;82.30;;;;;;5032383;28;20456;-86
2022/05/04 14:26:41;;;;;;;14.00;4.60;;;23.50;80.70;;;;;;5044701;28;20480;-83
2022/05/04 14:29:07;;;;;;;10.98;4.20;;;23.70;81.20;;;;;;5032515;28;20731;-85
2022/05/04 14:31:33;;;;;;;5.47;3.77;;;23.90;80.40;;;;;;5040579;28;20451;-83
2022/05/04 14:33:59;;;;;;;7.72;4.03;;;23.90;77.10;;;;;;5035215;28;20435;-85
2022/05/04 14:36:25;;;;;;;5.88;3.92;;;23.90;77.60;;;;;;5045139;28;20479;-84
2022/05/04 14:38:50;;;;;;;5.13;3.83;;;23.50;77.10;;;;;;5038467;28;20899;-86
2022/05/04 14:41:16;;;;;;;52.70;9.67;;;23.30;78.10;;;;;;5035418;28;20392;-84